Time;durP1;ratioP1;P1;durP2;ratioP2;P2;SDS_P1;SDS_P2;PMS_P1;PMS_P2;Temp;Humidity;BMP_temperature;BMP_pressure;BME280_temperature;BME280_humidity;BME280_pressure;Samples;Min_cycle;Max_cycle;Signal;HPM_P1;HPM_P2
2022/07/29 00:00:56;;;;;;;;;;;17.50;91.00;;;;;;4988926;28;19937;-80
2022/07/29 00:03:24;;;;;;;;;;;17.50;91.40;;;;;;4985267;28;19926;-81
2022/07/29 00:05:53;;;;;;;;;;;17.40;91.60;;;;;;4952525;28;19929;-79
2022/07/29 00:08:22;;;;;;;;;;;17.40;91.40;;;;;;4982411;28;19926;-80
2022/07/29 00:10:50;;;;;;;;;;;17.40;92.20;;;;;;4978479;28;19922;-80
2022/07/29 00:13:18;;;;;;;;;;;17.30;92.50;;;;;;4986073;28;19937;-80
2022/07/29 00:16:00;;;;;;;;;;;16.60;92.90;;;;;;4989211;28;19926;-80
2022/07/29 00:18:33;;;;;;;;;;;17.20;92.80;;;;;;4980828;28;19941;-80
2022/07/29 00:21:00;;;;;;;;;;;17.20;92.50;;;;;;4984258;28;19932;-79
2022/07/29 00:23:33;;;;;;;;;;;17.20;92.80;;;;;;4979975;28;19934;-80
2022/07/29 00:26:03;;;;;;;;;;;17.20;92.70;;;;;;4985005;28;19926;-81
2022/07/29 00:28:31;;;;;;;;;;;15.50;92.60;;;;;;4981614;28;19930;-81
2022/07/29 00:30:59;;;;;;;;;;;17.20;92.90;;;;;;4991322;28;19926;-81
2022/07/29 00:33:28;;;;;;;;;;;17.20;93.10;;;;;;4984304;28;19930;-80
2022/07/29 00:35:55;;;;;;;;;;;17.20;92.80;;;;;;4957535;28;19934;-80
2022/07/29 00:38:27;;;;;;;;;;;16.30;93.60;;;;;;4989905;28;19937;-80
2022/07/29 00:40:55;;;;;;;;;;;17.30;93.20;;;;;;4980562;28;19926;-80
2022/07/29 00:43:22;;;;;;;;;;;17.30;93.20;;;;;;4973232;28;20266;-80
2022/07/29 00:45:52;;;;;;;;;;;16.60;93.20;;;;;;5008202;28;19933;-80
2022/07/29 00:48:19;;;;;;;;;;;17.60;93.00;;;;;;5002968;28;19936;-80
2022/07/29 00:50:49;;;;;;;;;;;17.20;93.60;;;;;;4993582;28;19926;-80
2022/07/29 00:53:17;;;;;;;;;;;17.20;93.00;;;;;;4980073;28;19944;-80
2022/07/29 00:55:45;;;;;;;;;;;17.20;93.50;;;;;;4993259;28;20477;-80
2022/07/29 00:58:13;;;;;;;;;;;17.20;93.70;;;;;;4989993;28;19930;-80
2022/07/29 01:00:42;;;;;;;;;;;17.20;93.80;;;;;;4974148;28;19933;-80
2022/07/29 01:03:12;;;;;;;;;;;16.20;93.30;;;;;;5008248;28;19925;-80
2022/07/29 01:05:45;;;;;;;;;;;17.20;93.60;;;;;;4974478;28;19926;-79
2022/07/29 01:08:18;;;;;;;;;;;17.10;93.80;;;;;;4989095;28;19933;-80
2022/07/29 01:10:47;;;;;;;;;;;17.70;94.10;;;;;;4984225;28;19940;-80
2022/07/29 01:13:16;;;;;;;;;;;16.90;94.00;;;;;;4976643;28;19926;-81
2022/07/29 01:15:45;;;;;;;;;;;17.20;93.90;;;;;;4990500;28;19926;-81
2022/07/29 01:18:24;;;;;;;;;;;17.10;94.10;;;;;;5007909;28;19933;-80
2022/07/29 01:21:12;;;;;;;;;;;17.30;94.30;;;;;;4989832;28;19961;-79
2022/07/29 01:23:56;;;;;;;;;;;17.10;93.90;;;;;;4968132;28;19925;-80
2022/07/29 01:26:29;;;;;;;;;;;17.10;93.90;;;;;;5004493;28;19936;-80
2022/07/29 01:29:08;;;;;;;;;;;17.20;93.80;;;;;;4990259;28;19926;-80
2022/07/29 01:32:01;;;;;;;;;;;17.20;93.80;;;;;;4973506;28;20556;-80
2022/07/29 01:34:48;;;;;;;;;;;17.20;93.80;;;;;;4993215;28;19934;-80
2022/07/29 01:37:23;;;;;;;;;;;17.20;93.90;;;;;;4978044;28;19934;-81
2022/07/29 01:39:54;;;;;;;;;;;17.20;94.10;;;;;;4982959;28;19930;-80
2022/07/29 01:42:34;;;;;;;;;;;18.20;94.40;;;;;;4988961;28;19930;-81
2022/07/29 01:45:12;;;;;;;;;;;17.20;93.70;;;;;;4969357;28;19937;-80
2022/07/29 01:47:46;;;;;;;;;;;17.20;93.90;;;;;;4991296;28;19944;-81
2022/07/29 01:50:16;;;;;;;;;;;17.20;94.20;;;;;;4974895;28;19934;-81
2022/07/29 01:52:44;;;;;;;;;;;17.20;94.10;;;;;;4973676;28;20226;-80
2022/07/29 01:55:13;;;;;;;;;;;17.20;94.10;;;;;;4961205;28;19945;-80
2022/07/29 01:57:43;;;;;;;;;;;16.40;93.90;;;;;;4992225;28;20295;-79
2022/07/29 02:00:11;;;;;;;;;;;17.30;94.30;;;;;;4964469;28;19933;-79
2022/07/29 02:02:41;;;;;;;;;;;17.40;94.10;;;;;;4970971;28;20393;-80
2022/07/29 02:05:10;;;;;;;;;;;17.30;94.00;;;;;;4981219;28;19926;-80
2022/07/29 02:07:40;;;;;;;;;;;17.30;94.00;;;;;;4984846;28;19922;-80
2022/07/29 02:10:09;;;;;;;;;;;16.60;93.80;;;;;;4994243;28;19934;-80
2022/07/29 02:12:38;;;;;;;;;;;17.60;93.90;;;;;;4965314;28;19926;-79
2022/07/29 02:15:07;;;;;;;;;;;17.30;94.10;;;;;;5008300;28;20178;-80
2022/07/29 02:17:47;;;;;;;;;;;17.30;94.00;;;;;;4982742;28;19927;-80
2022/07/29 02:20:16;;;;;;;;;;;17.30;94.00;;;;;;4987453;28;19926;-80
2022/07/29 02:22:44;;;;;;;;;;;17.20;94.30;;;;;;4969797;28;19930;-80
2022/07/29 02:25:12;;;;;;;;;;;17.20;94.40;;;;;;4964926;28;19930;-81
2022/07/29 02:27:41;;;;;;;;;;;17.10;94.40;;;;;;4986446;28;19945;-80
2022/07/29 02:30:12;;;;;;;;;;;17.10;94.60;;;;;;4987354;28;19926;-81
2022/07/29 02:32:41;;;;;;;;;;;17.00;94.50;;;;;;4987661;28;19941;-80
2022/07/29 02:35:12;;;;;;;;;;;17.00;94.60;;;;;;4986807;28;19929;-80
2022/07/29 02:37:40;;;;;;;;;;;17.00;94.70;;;;;;4988902;28;19926;-80
2022/07/29 02:40:10;;;;;;;;;;;17.00;94.80;;;;;;4968355;28;19936;-80
2022/07/29 02:42:41;;;;;;;;;;;17.20;95.00;;;;;;4987657;28;19930;-80
2022/07/29 02:45:09;;;;;;;;;;;16.90;94.90;;;;;;4988701;28;19941;-79
2022/07/29 02:47:42;;;;;;;;;;;16.80;94.90;;;;;;4986548;28;19940;-78
2022/07/29 02:50:15;;;;;;;;;;;16.80;94.90;;;;;;4977135;28;19926;-79
2022/07/29 02:52:45;;;;;;;;;;;16.50;94.70;;;;;;4958031;28;19937;-79
2022/07/29 02:55:13;;;;;;;;;;;16.80;95.00;;;;;;4957104;28;19926;-80
2022/07/29 02:57:40;;;;;;;;;;;16.60;95.00;;;;;;4985791;28;19933;-80
2022/07/29 03:00:27;;;;;;;;;;;16.70;95.10;;;;;;4987393;28;19936;-80
2022/07/29 03:02:58;;;;;;;;;;;16.60;95.10;;;;;;4969816;28;19926;-80
2022/07/29 03:05:26;;;;;;;;;;;16.60;95.10;;;;;;4985808;28;19926;-80
2022/07/29 03:07:56;;;;;;;;;;;16.50;95.20;;;;;;4973223;28;19926;-80
2022/07/29 03:10:28;;;;;;;;;;;16.50;95.40;;;;;;4962832;28;19926;-80
2022/07/29 03:12:56;;;;;;;;;;;16.20;95.10;;;;;;4984741;28;19937;-80
2022/07/29 03:15:26;;;;;;;;;;;16.40;95.30;;;;;;4985576;28;19941;-80
2022/07/29 03:17:55;;;;;;;;;;;16.40;95.40;;;;;;4996925;28;19930;-79
2022/07/29 03:20:23;;;;;;;;;;;16.40;95.40;;;;;;4989114;28;19926;-81
2022/07/29 03:22:51;;;;;;;;;;;16.40;95.40;;;;;;4987621;28;19926;-81
2022/07/29 03:25:20;;;;;;;;;;;16.30;95.40;;;;;;4970284;28;19932;-80
2022/07/29 03:27:48;;;;;;;;;;;15.80;95.20;;;;;;4988458;28;19929;-80
2022/07/29 03:30:17;;;;;;;;;;;16.30;95.80;;;;;;4972653;28;20230;-79
2022/07/29 03:32:50;;;;;;;;;;;16.20;96.00;;;;;;4975672;28;19941;-79
2022/07/29 03:38:42;;;;;;;;;;;16.00;96.10;;;;;;4318749;22;10001161;-90
2022/07/29 03:41:11;;;;;;;;;;;15.80;96.50;;;;;;4954517;29;19927;-90
2022/07/29 03:43:40;;;;;;;;;;;15.70;96.40;;;;;;4973035;28;19922;-90
2022/07/29 03:46:16;;;;;;;;;;;15.70;96.60;;;;;;4973142;28;19915;-89
2022/07/29 03:48:48;;;;;;;;;;;15.60;96.60;;;;;;4972273;28;19931;-90
2022/07/29 03:51:16;;;;;;;;;;;15.50;96.80;;;;;;4940864;28;19930;-91
2022/07/29 03:53:44;;;;;;;;;;;15.50;96.90;;;;;;4941474;28;19941;-90
2022/07/29 03:56:14;;;;;;;;;;;15.40;96.60;;;;;;4939980;29;19933;-91
2022/07/29 03:58:42;;;;;;;;;;;15.40;97.20;;;;;;4963131;29;20101;-91
2022/07/29 04:01:10;;;;;;;;;;;15.30;97.10;;;;;;4952980;29;19933;-88
2022/07/29 04:03:38;;;;;;;;;;;15.30;97.20;;;;;;4949673;29;19937;-91
2022/07/29 04:06:06;;;;;;;;;;;15.20;97.30;;;;;;4952453;29;19931;-90
2022/07/29 04:08:34;;;;;;;;;;;15.20;97.40;;;;;;4949554;29;19931;-87
2022/07/29 04:11:02;;;;;;;;;;;15.30;97.40;;;;;;4950661;29;19930;-91
2022/07/29 04:13:31;;;;;;;;;;;15.10;97.40;;;;;;4951523;29;19915;-88
2022/07/29 04:15:58;;;;;;;;;;;15.10;97.50;;;;;;4951068;29;19933;-90
2022/07/29 04:18:26;;;;;;;;;;;15.00;97.40;;;;;;4946707;29;19927;-88
2022/07/29 04:20:54;;;;;;;;;;;15.00;97.50;;;;;;4947777;29;19931;-88
2022/07/29 04:23:32;;;;;;;;;;;15.00;98.00;;;;;;4919639;29;19930;-89
2022/07/29 04:26:00;;;;;;;;;;;15.00;98.00;;;;;;4964803;28;19927;-90
2022/07/29 04:28:29;;;;;;;;;;;14.90;98.00;;;;;;4958024;29;19933;-88
2022/07/29 04:30:58;;;;;;;;;;;14.80;97.80;;;;;;4968643;29;19921;-87
2022/07/29 04:33:27;;;;;;;;;;;14.80;97.80;;;;;;4952685;29;19931;-87
2022/07/29 04:35:54;;;;;;;;;;;14.80;97.90;;;;;;4950484;29;19937;-89
2022/07/29 04:38:23;;;;;;;;;;;14.80;97.70;;;;;;4943539;29;19927;-90
2022/07/29 04:40:51;;;;;;;;;;;14.80;98.00;;;;;;4946317;29;19931;-88
2022/07/29 04:43:18;;;;;;;;;;;14.80;97.80;;;;;;4932890;29;19927;-87
2022/07/29 04:45:50;;;;;;;;;;;14.80;98.50;;;;;;4946942;29;19927;-87
2022/07/29 04:48:17;;;;;;;;;;;14.80;97.90;;;;;;4944089;29;19933;-88
2022/07/29 04:50:45;;;;;;;;;;;14.70;98.20;;;;;;4928287;29;19926;-88
2022/07/29 04:53:12;;;;;;;;;;;14.80;98.20;;;;;;4918791;29;19929;-88
2022/07/29 04:55:41;;;;;;;;;;;14.80;98.60;;;;;;4931955;29;19921;-90
2022/07/29 04:58:08;;;;;;;;;;;14.70;98.20;;;;;;4923856;29;19949;-88
2022/07/29 05:00:38;;;;;;;;;;;14.70;98.50;;;;;;4939970;29;19915;-88
2022/07/29 05:03:07;;;;;;;;;;;14.70;98.50;;;;;;4954252;29;19941;-87
2022/07/29 05:05:37;;;;;;;;;;;14.70;98.30;;;;;;4937627;29;19927;-89
2022/07/29 05:08:05;;;;;;;;;;;14.80;98.60;;;;;;4949601;29;19943;-87
2022/07/29 05:10:37;;;;;;;;;;;14.70;98.60;;;;;;4938965;29;19927;-90
2022/07/29 05:13:09;;;;;;;;;;;14.80;98.40;;;;;;4923163;29;19934;-87
2022/07/29 05:15:37;;;;;;;;;;;14.80;98.60;;;;;;4949178;29;19930;-90
2022/07/29 05:18:06;;;;;;;;;;;14.80;98.60;;;;;;4929670;29;19938;-90
2022/07/29 05:20:36;;;;;;;;;;;14.80;98.50;;;;;;4923405;29;20286;-88
2022/07/29 05:23:04;;;;;;;;;;;16.10;99.10;;;;;;4952322;29;19930;-89
2022/07/29 05:25:33;;;;;;;;;;;14.90;98.80;;;;;;4934211;29;19927;-89
2022/07/29 05:28:11;;;;;;;;;;;14.90;98.50;;;;;;4908559;29;19927;-89
2022/07/29 05:30:38;;;;;;;;;;;15.00;98.50;;;;;;4944341;29;20405;-89
2022/07/29 05:33:06;;;;;;;;;;;15.10;98.50;;;;;;4946427;29;19931;-88
2022/07/29 05:35:54;;;;;;;;;;;15.20;98.40;;;;;;4937603;29;19935;-90
2022/07/29 05:38:28;;;;;;;;;;;16.70;98.90;;;;;;4959175;29;19927;-90
2022/07/29 05:40:59;;;;;;;;;;;15.40;98.40;;;;;;4611110;28;10001057;-90
2022/07/29 05:43:28;;;;;;;;;;;15.50;98.20;;;;;;4955016;29;19926;-91
2022/07/29 05:45:56;;;;;;;;;;;15.60;98.20;;;;;;4940861;29;19927;-90
2022/07/29 05:48:24;;;;;;;;;;;15.70;98.00;;;;;;4943560;29;19946;-90
2022/07/29 05:50:51;;;;;;;;;;;15.90;98.00;;;;;;4940637;29;19927;-88
2022/07/29 05:53:23;;;;;;;;;;;16.00;97.80;;;;;;4956025;29;19926;-90
2022/07/29 05:55:51;;;;;;;;;;;16.10;97.80;;;;;;4962211;28;19942;-90
2022/07/29 05:58:20;;;;;;;;;;;16.30;97.60;;;;;;4970350;28;19936;-91
2022/07/29 06:00:49;;;;;;;;;;;16.40;97.40;;;;;;4938673;28;19936;-91
2022/07/29 06:03:16;;;;;;;;;;;16.50;97.20;;;;;;4958194;28;19914;-89
2022/07/29 06:05:45;;;;;;;;;;;16.60;97.30;;;;;;4964806;29;19942;-91
2022/07/29 06:08:13;;;;;;;;;;;16.80;97.10;;;;;;4958578;28;19931;-90
2022/07/29 06:10:40;;;;;;;;;;;16.90;97.10;;;;;;4951147;29;19926;-88
2022/07/29 06:13:08;;;;;;;;;;;17.00;96.90;;;;;;4949219;29;19938;-89
2022/07/29 06:15:36;;;;;;;;;;;17.10;96.90;;;;;;4939962;29;19927;-91
2022/07/29 06:18:03;;;;;;;;;;;17.20;96.80;;;;;;4931863;29;19927;-90
2022/07/29 06:20:31;;;;;;;;;;;17.30;96.90;;;;;;4953376;29;19910;-91
2022/07/29 06:22:59;;;;;;;;;;;17.60;96.80;;;;;;4937796;29;19931;-91
2022/07/29 06:25:32;;;;;;;;;;;17.50;96.70;;;;;;4953184;29;19930;-89
2022/07/29 06:27:59;;;;;;;;;;;17.60;96.60;;;;;;4946462;29;19927;-88
2022/07/29 06:30:28;;;;;;;;;;;17.80;96.60;;;;;;4944464;29;19934;-88
2022/07/29 06:32:56;;;;;;;;;;;17.80;96.40;;;;;;4945984;29;19938;-87
2022/07/29 06:35:24;;;;;;;;;;;17.90;96.40;;;;;;4932419;29;19927;-88
2022/07/29 06:38:11;;;;;;;;;;;18.00;96.70;;;;;;4944457;29;19931;-88
2022/07/29 06:41:05;;;;;;;;;;;18.40;96.20;;;;;;4942350;29;19938;-89
2022/07/29 06:43:35;;;;;;;;;;;18.20;96.40;;;;;;4963101;29;19938;-88
2022/07/29 06:46:18;;;;;;;;;;;18.30;96.30;;;;;;4949577;29;19939;-89
2022/07/29 06:48:49;;;;;;;;;;;18.40;96.50;;;;;;4933183;29;19927;-89
2022/07/29 06:51:17;;;;;;;;;;;18.50;96.40;;;;;;4937287;28;19923;-89
2022/07/29 06:53:50;;;;;;;;;;;18.60;96.20;;;;;;4936909;28;19926;-89
2022/07/29 06:56:30;;;;;;;;;;;18.70;96.20;;;;;;4944303;28;19927;-91
2022/07/29 06:59:05;;;;;;;;;;;18.80;96.20;;;;;;4968873;28;19927;-90
2022/07/29 07:01:32;;;;;;;;;;;18.90;96.10;;;;;;4952680;29;19931;-90
2022/07/29 07:04:00;;;;;;;;;;;19.00;96.10;;;;;;4955808;29;19931;-90
2022/07/29 07:06:29;;;;;;;;;;;19.10;96.10;;;;;;4937023;28;20070;-91
2022/07/29 07:08:56;;;;;;;;;;;19.20;95.90;;;;;;4933247;29;19938;-91
2022/07/29 07:11:25;;;;;;;;;;;19.40;96.10;;;;;;4936465;29;19933;-92
2022/07/29 07:13:56;;;;;;;;;;;19.40;96.00;;;;;;4937756;29;19915;-90
2022/07/29 07:16:43;;;;;;;;;;;19.50;95.70;;;;;;4956987;28;19930;-91
2022/07/29 07:19:11;;;;;;;;;;;19.60;95.70;;;;;;4950992;29;19921;-90
2022/07/29 07:21:40;;;;;;;;;;;19.80;95.60;;;;;;4938734;28;19910;-91
2022/07/29 07:24:07;;;;;;;;;;;19.90;95.40;;;;;;4954606;28;19931;-91
2022/07/29 07:26:37;;;;;;;;;;;20.00;95.20;;;;;;4939181;29;19923;-90
2022/07/29 07:29:05;;;;;;;;;;;20.00;95.10;;;;;;4930681;28;19923;-90
2022/07/29 07:31:35;;;;;;;;;;;19.90;95.10;;;;;;4959702;28;19938;-90
2022/07/29 07:34:07;;;;;;;;;;;20.10;95.20;;;;;;4956552;28;19915;-92
2022/07/29 07:36:35;;;;;;;;;;;20.10;95.20;;;;;;4960287;28;19921;-91
2022/07/29 07:39:05;;;;;;;;;;;20.00;95.10;;;;;;4954192;28;19915;-87
2022/07/29 07:42:01;;;;;;;;;;;20.00;95.40;;;;;;4958314;28;19927;-91
2022/07/29 07:44:32;;;;;;;;;;;20.00;95.30;;;;;;4952668;28;19914;-90
2022/07/29 07:47:20;;;;;;;;;;;19.90;95.30;;;;;;4956521;28;19918;-91
2022/07/29 07:49:52;;;;;;;;;;;19.80;95.40;;;;;;4939977;28;19914;-90
2022/07/29 07:52:21;;;;;;;;;;;19.80;95.50;;;;;;4933873;29;19925;-91
2022/07/29 07:54:50;;;;;;;;;;;19.80;95.50;;;;;;4940801;28;19914;-89
2022/07/29 07:57:18;;;;;;;;;;;19.80;95.70;;;;;;4957485;28;19941;-89
2022/07/29 07:59:46;;;;;;;;;;;19.80;95.60;;;;;;4949456;28;19922;-90
2022/07/29 08:02:14;;;;;;;;;;;19.90;95.50;;;;;;4937443;29;19935;-90
2022/07/29 08:04:41;;;;;;;;;;;20.00;95.40;;;;;;4953637;29;19927;-90
2022/07/29 08:07:11;;;;;;;;;;;20.00;95.20;;;;;;4953366;28;19933;-89
2022/07/29 08:09:39;;;;;;;;;;;20.10;95.00;;;;;;4952198;29;19950;-90
2022/07/29 08:12:07;;;;;;;;;;;20.20;95.00;;;;;;4951955;28;19922;-91
2022/07/29 08:14:37;;;;;;;;;;;20.30;94.60;;;;;;4933865;29;19945;-91
2022/07/29 08:17:04;;;;;;;;;;;20.40;94.30;;;;;;4916924;29;19930;-90
2022/07/29 08:19:33;;;;;;;;;;;20.40;94.40;;;;;;4919618;29;19931;-91
2022/07/29 08:22:00;;;;;;;;;;;20.40;93.60;;;;;;4945481;28;19930;-90
2022/07/29 08:24:45;;;;;;;;;;;20.40;93.70;;;;;;4954885;28;19916;-91
2022/07/29 08:27:13;;;;;;;;;;;20.50;93.30;;;;;;4944580;28;19923;-92
2022/07/29 08:30:04;;;;;;;;;;;20.50;93.30;;;;;;4932563;29;19927;-90
2022/07/29 08:32:35;;;;;;;;;;;20.60;92.60;;;;;;4950511;29;19935;-92
2022/07/29 08:35:21;;;;;;;;;;;20.60;92.00;;;;;;4953373;28;19915;-92
2022/07/29 08:37:49;;;;;;;;;;;20.60;92.30;;;;;;4928772;29;19933;-90
2022/07/29 08:40:17;;;;;;;;;;;20.70;92.10;;;;;;4935981;28;19927;-91
2022/07/29 08:42:45;;;;;;;;;;;20.70;92.30;;;;;;4937256;28;19930;-90
2022/07/29 08:45:12;;;;;;;;;;;20.80;92.50;;;;;;4955812;28;19929;-90
2022/07/29 08:47:40;;;;;;;;;;;20.90;92.10;;;;;;4941489;28;19915;-92
2022/07/29 08:50:12;;;;;;;;;;;20.90;92.20;;;;;;4948283;28;19923;-92
2022/07/29 08:52:43;;;;;;;;;;;20.90;91.90;;;;;;4938814;28;19911;-90
2022/07/29 08:55:10;;;;;;;;;;;21.00;91.40;;;;;;4956752;28;19927;-90
2022/07/29 08:57:39;;;;;;;;;;;21.10;91.20;;;;;;4955241;28;19925;-89
2022/07/29 09:00:18;;;;;;;;;;;21.10;90.00;;;;;;4940248;28;19927;-93
2022/07/29 09:02:47;;;;;;;;;;;21.20;90.50;;;;;;4941002;28;19929;-93
2022/07/29 09:05:16;;;;;;;;;;;21.30;90.10;;;;;;4972292;28;19930;-91
2022/07/29 09:07:47;;;;;;;;;;;21.40;90.00;;;;;;4941967;28;19918;-90
2022/07/29 09:10:16;;;;;;;;;;;21.40;90.10;;;;;;4942023;28;19925;-90
2022/07/29 09:12:44;;;;;;;;;;;21.50;85.80;;;;;;4941123;28;19941;-91
2022/07/29 09:15:14;;;;;;;;;;;21.50;86.30;;;;;;4969586;28;19935;-91
2022/07/29 09:17:43;;;;;;;;;;;21.50;87.60;;;;;;4953047;29;19910;-93
2022/07/29 09:20:12;;;;;;;;;;;21.60;87.40;;;;;;4957076;28;19927;-93
2022/07/29 09:22:39;;;;;;;;;;;21.70;88.40;;;;;;4927410;28;19926;-91
2022/07/29 09:25:11;;;;;;;;;;;21.70;87.50;;;;;;4969344;28;19941;-91
2022/07/29 09:27:38;;;;;;;;;;;21.80;86.70;;;;;;4956556;28;19925;-92
2022/07/29 09:30:14;;;;;;;;;;;21.80;87.20;;;;;;4952130;28;19931;-92
2022/07/29 09:32:57;;;;;;;;;;;21.90;87.90;;;;;;4956441;28;19915;-91
2022/07/29 09:35:26;;;;;;;;;;;22.00;87.80;;;;;;4956321;28;19930;-91
2022/07/29 09:37:54;;;;;;;;;;;22.00;87.60;;;;;;4954074;28;19930;-91
2022/07/29 09:40:23;;;;;;;;;;;22.10;86.90;;;;;;4917640;28;19910;-90
2022/07/29 09:42:52;;;;;;;;;;;22.30;85.70;;;;;;4955481;28;19921;-92
2022/07/29 09:45:28;;;;;;;;;;;22.30;86.80;;;;;;4939549;28;19914;-90
2022/07/29 09:47:59;;;;;;;;;;;22.40;84.90;;;;;;4956310;28;19914;-93
2022/07/29 09:50:35;;;;;;;;;;;22.40;84.40;;;;;;4949048;28;19919;-91
2022/07/29 09:53:03;;;;;;;;;;;22.60;85.40;;;;;;4971089;28;20210;-88
2022/07/29 09:55:30;;;;;;;;;;;22.70;84.70;;;;;;4973258;28;19922;-93
2022/07/29 09:58:18;;;;;;;;;;;22.80;84.60;;;;;;4957549;29;19918;-91
2022/07/29 10:00:48;;;;;;;;;;;22.90;84.50;;;;;;4947564;29;19934;-92
2022/07/29 10:03:17;;;;;;;;;;;22.90;83.40;;;;;;4937721;29;20526;-90
2022/07/29 10:06:03;;;;;;;;;;;23.00;83.10;;;;;;4951595;29;19933;-90
2022/07/29 10:08:31;;;;;;;;;;;23.10;84.50;;;;;;4937178;29;19931;-90
2022/07/29 10:11:09;;;;;;;;;;;23.20;83.40;;;;;;4953728;28;19930;-90
2022/07/29 10:13:40;;;;;;;;;;;23.30;82.80;;;;;;4937338;28;20400;-90
2022/07/29 10:16:10;;;;;;;;;;;23.40;83.20;;;;;;4967728;28;19930;-88
2022/07/29 10:18:44;;;;;;;;;;;23.40;81.50;;;;;;4952479;28;19929;-89
2022/07/29 10:21:16;;;;;;;;;;;23.50;81.40;;;;;;4941372;28;19941;-93
2022/07/29 10:24:02;;;;;;;;;;;23.60;81.30;;;;;;4908614;29;19941;-93
2022/07/29 10:26:31;;;;;;;;;;;23.70;79.60;;;;;;4951999;29;19941;-91
2022/07/29 10:28:59;;;;;;;;;;;23.90;78.80;;;;;;4932942;29;19943;-89
2022/07/29 10:31:43;;;;;;;;;;;24.00;79.60;;;;;;4947036;28;19930;-92
2022/07/29 10:34:30;;;;;;;;;;;24.10;77.70;;;;;;4940185;28;19946;-89
2022/07/29 10:37:01;;;;;;;;;;;24.20;78.10;;;;;;4969635;28;19921;-91
2022/07/29 10:39:33;;;;;;;;;;;24.30;78.20;;;;;;4971523;28;19926;-92
2022/07/29 10:42:12;;;;;;;;;;;24.40;77.60;;;;;;4940437;28;20113;-90
2022/07/29 10:44:43;;;;;;;;;;;24.50;76.60;;;;;;4939652;28;19935;-91
2022/07/29 10:47:21;;;;;;;;;;;24.60;75.30;;;;;;4938705;29;19945;-92
2022/07/29 10:50:00;;;;;;;;;;;24.70;75.40;;;;;;4946513;28;19927;-89
2022/07/29 10:52:46;;;;;;;;;;;24.80;73.20;;;;;;4966920;28;19923;-91
2022/07/29 10:55:34;;;;;;;;;;;24.90;74.10;;;;;;4958760;28;19921;-93
2022/07/29 10:58:16;;;;;;;;;;;25.00;72.70;;;;;;4956672;28;19912;-95
2022/07/29 11:00:48;;;;;;;;;;;25.10;72.40;;;;;;4956153;28;19921;-89
2022/07/29 11:03:36;;;;;;;;;;;25.20;72.20;;;;;;4958904;28;19978;-88
2022/07/29 11:06:09;;;;;;;;;;;25.20;71.80;;;;;;4940464;28;19930;-93
2022/07/29 11:09:08;;;;;;;;;;;25.30;70.80;;;;;;4970665;28;19915;-92
2022/07/29 11:12:03;;;;;;;;;;;25.40;71.40;;;;;;4936495;28;19925;-90
2022/07/29 11:14:51;;;;;;;;;;;25.50;70.90;;;;;;4968571;29;19941;-89
2022/07/29 11:17:18;;;;;;;;;;;25.50;72.20;;;;;;4957304;28;19918;-91
2022/07/29 11:19:48;;;;;;;;;;;25.60;71.70;;;;;;4953483;28;19923;-91
2022/07/29 11:22:33;;;;;;;;;;;25.70;70.20;;;;;;4940953;28;19917;-90
2022/07/29 11:25:14;;;;;;;;;;;25.80;70.20;;;;;;4937396;28;19915;-90
2022/07/29 11:27:46;;;;;;;;;;;26.00;70.40;;;;;;4949965;28;19930;-89
2022/07/29 11:30:34;;;;;;;;;;;26.10;69.70;;;;;;4937771;28;19941;-88
2022/07/29 11:33:26;;;;;;;;;;;26.30;70.50;;;;;;4920045;29;19923;-90
2022/07/29 11:37:01;;;;;;;;;;;27.00;70.40;;;;;;4938146;29;20238;-89
2022/07/29 11:39:30;;;;;;;;;;;26.40;69.20;;;;;;4948347;28;19933;-91
2022/07/29 11:45:27;;;;;;;;;;;26.60;67.30;;;;;;4949589;29;19915;-90
2022/07/29 11:48:17;;;;;;;;;;;26.70;67.30;;;;;;4953134;28;19933;-90
2022/07/29 11:50:58;;;;;;;;;;;26.80;66.40;;;;;;4966403;29;19953;-92
2022/07/29 11:53:33;;;;;;;;;;;26.90;66.40;;;;;;4934736;29;19925;-92
2022/07/29 11:56:01;;;;;;;;;;;27.10;67.10;;;;;;4936767;28;19919;-90
2022/07/29 11:58:30;;;;;;;;;;;27.20;67.50;;;;;;4937036;28;19975;-91
2022/07/29 12:00:59;;;;;;;;;;;27.20;66.90;;;;;;4933807;28;19935;-90
2022/07/29 12:03:59;;;;;;;;;;;27.30;67.80;;;;;;4923113;28;19952;-89
2022/07/29 12:06:29;;;;;;;;;;;27.30;66.70;;;;;;4934228;28;20247;-89
2022/07/29 12:09:08;;;;;;;;;;;27.40;65.90;;;;;;4940735;28;19911;-88
2022/07/29 12:11:46;;;;;;;;;;;27.50;66.60;;;;;;4956316;28;19931;-90
2022/07/29 12:14:31;;;;;;;;;;;27.60;67.10;;;;;;4942877;28;19925;-92
2022/07/29 12:17:29;;;;;;;;;;;27.60;65.90;;;;;;4954871;28;19917;-89
2022/07/29 12:19:58;;;;;;;;;;;27.60;66.00;;;;;;4956634;28;19933;-91
2022/07/29 12:22:28;;;;;;;;;;;27.60;65.30;;;;;;4958014;28;19918;-90
2022/07/29 12:25:02;;;;;;;;;;;27.70;66.50;;;;;;4956270;28;19923;-92
2022/07/29 12:28:06;;;;;;;;;;;26.10;64.70;;;;;;4930827;29;19910;-89
2022/07/29 12:30:52;;;;;;;;;;;27.90;64.90;;;;;;4954409;28;19911;-90
2022/07/29 12:33:24;;;;;;;;;;;27.90;65.20;;;;;;4954278;28;19933;-91
2022/07/29 12:36:18;;;;;;;;;;;27.90;64.80;;;;;;4941911;29;19927;-90
2022/07/29 12:38:46;;;;;;;;;;;28.10;64.40;;;;;;4920220;29;19927;-89
2022/07/29 12:41:15;;;;;;;;;;;28.20;65.20;;;;;;4963108;29;19939;-91
2022/07/29 12:43:54;;;;;;;;;;;28.30;63.50;;;;;;4958647;28;19910;-91
2022/07/29 12:46:22;;;;;;;;;;;28.80;63.80;;;;;;4958180;28;19927;-90
2022/07/29 12:48:51;;;;;;;;;;;28.60;64.40;;;;;;4956890;28;19921;-91
2022/07/29 12:51:27;;;;;;;;;;;28.80;64.00;;;;;;4940195;28;19926;-92
2022/07/29 12:54:13;;;;;;;;;;;28.90;63.70;;;;;;4955428;29;19941;-92
2022/07/29 12:56:41;;;;;;;;;;;29.10;61.80;;;;;;4939549;29;19911;-91
2022/07/29 12:59:21;;;;;;;;;;;29.30;62.10;;;;;;4955576;28;19915;-93
2022/07/29 13:01:50;;;;;;;;;;;29.30;61.80;;;;;;4937834;28;19935;-92
2022/07/29 13:04:28;;;;;;;;;;;29.40;61.40;;;;;;4921753;29;19934;-92
2022/07/29 13:07:01;;;;;;;;;;;29.60;61.10;;;;;;4938345;29;19927;-93
2022/07/29 13:09:40;;;;;;;;;;;29.60;60.70;;;;;;4931987;29;19934;-88
2022/07/29 13:12:09;;;;;;;;;;;29.70;61.50;;;;;;4970344;29;19942;-90
2022/07/29 13:14:39;;;;;;;;;;;29.80;61.80;;;;;;4937525;29;19934;-90
2022/07/29 13:17:13;;;;;;;;;;;30.00;61.80;;;;;;4936995;29;20064;-90
2022/07/29 13:20:04;;;;;;;;;;;30.00;60.40;;;;;;4944420;29;19934;-88
2022/07/29 13:22:37;;;;;;;;;;;30.00;60.70;;;;;;4946498;29;20332;-90
2022/07/29 13:25:08;;;;;;;;;;;29.80;60.50;;;;;;4932347;29;19931;-91
2022/07/29 13:27:37;;;;;;;;;;;29.70;60.30;;;;;;4946703;29;19933;-91
2022/07/29 13:30:08;;;;;;;;;;;29.70;59.90;;;;;;4949047;28;20236;-91
2022/07/29 13:32:37;;;;;;;;;;;29.60;60.00;;;;;;4954505;28;19925;-90
2022/07/29 13:35:08;;;;;;;;;;;29.80;60.40;;;;;;4952663;28;19927;-91
2022/07/29 13:37:37;;;;;;;;;;;29.90;59.70;;;;;;4917842;29;19927;-92
2022/07/29 13:40:09;;;;;;;;;;;29.90;60.20;;;;;;4927631;29;19927;-91
2022/07/29 13:42:39;;;;;;;;;;;30.20;59.50;;;;;;4935816;29;19927;-91
2022/07/29 13:45:07;;;;;;;;;;;30.50;59.40;;;;;;4922522;28;19931;-90
2022/07/29 13:47:35;;;;;;;;;;;30.70;59.60;;;;;;4959800;29;19935;-91
2022/07/29 13:50:06;;;;;;;;;;;31.00;58.50;;;;;;4939922;29;19930;-90
2022/07/29 13:52:35;;;;;;;;;;;31.40;58.90;;;;;;4918261;29;19930;-91
2022/07/29 13:55:03;;;;;;;;;;;31.60;58.10;;;;;;4897727;29;19942;-92
2022/07/29 13:57:31;;;;;;;;;;;31.90;56.80;;;;;;4918693;29;19938;-92
2022/07/29 13:59:59;;;;;;;;;;;32.10;57.20;;;;;;4947254;29;19941;-90
2022/07/29 14:02:26;;;;;;;;;;;32.30;58.20;;;;;;4940720;29;19927;-91
2022/07/29 14:04:54;;;;;;;;;;;32.40;57.50;;;;;;4913377;29;19934;-90
2022/07/29 14:07:22;;;;;;;;;;;32.70;56.70;;;;;;4947335;29;19936;-93
2022/07/29 14:09:50;;;;;;;;;;;32.90;56.40;;;;;;4901623;29;20394;-93
2022/07/29 14:12:18;;;;;;;;;;;32.80;56.80;;;;;;4917641;29;19935;-92
2022/07/29 14:14:47;;;;;;;;;;;32.70;55.20;;;;;;4922781;29;20026;-95
2022/07/29 14:17:18;;;;;;;;;;;32.40;56.00;;;;;;4926857;29;20430;-88
2022/07/29 14:19:46;;;;;;;;;;;32.20;56.40;;;;;;4925831;29;20503;-90
2022/07/29 14:22:14;;;;;;;;;;;32.00;55.90;;;;;;4921080;29;20313;-90
2022/07/29 14:24:42;;;;;;;;;;;31.70;55.80;;;;;;4946045;29;19938;-88
2022/07/29 14:27:11;;;;;;;;;;;31.40;55.90;;;;;;4929436;29;19937;-88
2022/07/29 14:29:39;;;;;;;;;;;31.10;56.50;;;;;;4924385;29;19927;-87
2022/07/29 14:32:14;;;;;;;;;;;30.80;56.30;;;;;;4940892;28;20326;-88
2022/07/29 14:34:42;;;;;;;;;;;30.30;56.70;;;;;;4938132;29;20335;-87
2022/07/29 14:37:09;;;;;;;;;;;30.10;57.50;;;;;;4939237;29;19934;-84
2022/07/29 14:39:42;;;;;;;;;;;30.30;57.90;;;;;;4924752;29;19930;-86
2022/07/29 14:42:10;;;;;;;;;;;30.80;57.40;;;;;;4921927;29;20256;-85
2022/07/29 14:44:40;;;;;;;;;;;31.50;56.90;;;;;;4928518;29;19931;-87
2022/07/29 14:47:11;;;;;;;;;;;32.10;55.80;;;;;;4906279;29;19958;-89
2022/07/29 14:49:38;;;;;;;;;;;32.50;55.10;;;;;;4941334;29;19938;-88
2022/07/29 14:52:06;;;;;;;;;;;33.00;54.30;;;;;;4919058;29;19938;-86